Time;durP1;ratioP1;P1;durP2;ratioP2;P2;SDS_P1;SDS_P2;PMS_P1;PMS_P2;Temp;Humidity;BMP_temperature;BMP_pressure;BME280_temperature;BME280_humidity;BME280_pressure;Samples;Min_cycle;Max_cycle;Signal;HPM_P1;HPM_P2
2021/12/24 00:00:30;;;;;;;;;;;8.80;1.00;;;;;;5037083;28;19952;-81
2021/12/24 00:02:56;;;;;;;;;;;8.80;1.00;;;;;;5043506;28;19936;-80
2021/12/24 00:05:21;;;;;;;;;;;8.80;1.00;;;;;;5024000;28;19923;-80
2021/12/24 00:07:47;;;;;;;;;;;8.80;1.00;;;;;;5021220;28;20001;-80
2021/12/24 00:10:13;;;;;;;;;;;8.70;1.00;;;;;;5050597;28;19925;-81
2021/12/24 00:12:44;;;;;;;;;;;8.70;1.00;;;;;;5026175;28;19909;-80
2021/12/24 00:18:10;;;;;;;;;;;8.70;4.90;;;;;;5021812;28;19916;-80
2021/12/24 00:23:30;;;;;;;;;;;8.70;6.10;;;;;;5037482;28;19908;-80
2021/12/24 00:36:47;;;;;;;;;;;8.70;1.90;;;;;;5040871;28;19982;-81
2021/12/24 00:39:12;;;;;;;;;;;8.80;1.00;;;;;;5042395;28;19921;-80
2021/12/24 00:41:38;;;;;;;;;;;8.80;1.00;;;;;;5041718;28;19913;-80
2021/12/24 00:44:03;;;;;;;;;;;8.80;1.00;;;;;;5034549;28;20396;-81
2021/12/24 00:46:29;;;;;;;;;;;8.80;1.00;;;;;;5046133;28;19909;-80
2021/12/24 00:48:56;;;;;;;;;;;8.80;1.00;;;;;;5044943;28;19927;-80
2021/12/24 00:56:50;;;;;;;;;;;8.90;1.00;;;;;;5045302;28;19920;-81
2021/12/24 00:59:16;;;;;;;;;;;8.90;1.00;;;;;;5052282;28;19913;-81
2021/12/24 01:01:41;;;;;;;;;;;8.90;1.00;;;;;;5040205;28;19913;-80
2021/12/24 01:04:07;;;;;;;;;;;8.90;1.00;;;;;;5039164;28;20300;-79
2021/12/24 01:06:32;;;;;;;;;;;8.90;1.00;;;;;;5046726;28;19956;-81
2021/12/24 01:08:58;;;;;;;;;;;8.90;1.00;;;;;;5045310;28;19962;-80
2021/12/24 01:11:23;;;;;;;;;;;8.90;1.00;;;;;;5026672;28;19920;-81
2021/12/24 01:13:48;;;;;;;;;;;8.90;1.00;;;;;;5041709;28;19948;-81
2021/12/24 01:16:28;;;;;;;;;;;8.90;1.00;;;;;;5052017;28;19916;-81
2021/12/24 01:19:03;;;;;;;;;;;8.90;1.00;;;;;;5034889;28;20383;-80
2021/12/24 01:23:59;;;;;;;;;;;8.90;1.00;;;;;;5043110;28;19913;-80
2021/12/24 01:26:45;;;;;;;;;;;8.90;1.00;;;;;;5047917;28;19920;-81
2021/12/24 01:42:42;;;;;;;;;;;9.00;1.00;;;;;;5038147;28;19968;-81
2021/12/24 01:45:23;;;;;;;;;;;9.00;1.00;;;;;;5037034;28;19928;-81
2021/12/24 01:47:50;;;;;;;;;;;9.00;1.00;;;;;;5030575;28;19919;-81
2021/12/24 01:50:16;;;;;;;;;;;9.00;1.00;;;;;;5057264;28;19927;-81
2021/12/24 01:52:42;;;;;;;;;;;9.10;1.00;;;;;;5041994;28;19913;-81
2021/12/24 01:55:08;;;;;;;;;;;9.10;1.00;;;;;;5040746;28;19913;-80
2021/12/24 01:57:34;;;;;;;;;;;9.10;1.00;;;;;;5037604;28;19952;-80
2021/12/24 02:00:00;;;;;;;;;;;9.10;1.00;;;;;;5038217;28;20365;-81
2021/12/24 02:02:27;;;;;;;;;;;9.20;1.00;;;;;;5047987;28;20050;-81
2021/12/24 02:04:53;;;;;;;;;;;9.10;1.00;;;;;;5034987;28;19979;-81
2021/12/24 02:07:18;;;;;;;;;;;9.20;1.00;;;;;;5053558;28;19964;-80
2021/12/24 02:09:44;;;;;;;;;;;9.20;1.00;;;;;;5039493;28;20018;-80
2021/12/24 02:12:10;;;;;;;;;;;9.20;1.00;;;;;;5053515;28;19909;-80
2021/12/24 02:14:38;;;;;;;;;;;9.20;1.00;;;;;;5033869;28;19919;-80
2021/12/24 02:17:34;;;;;;;;;;;9.20;1.00;;;;;;5037144;28;19913;-80
2021/12/24 02:28:21;;;;;;;;;;;9.30;1.00;;;;;;5037975;28;19920;-80
2021/12/24 02:30:47;;;;;;;;;;;9.30;1.00;;;;;;5047589;28;19908;-80
2021/12/24 02:33:12;;;;;;;;;;;9.30;1.00;;;;;;5019540;28;19919;-80
2021/12/24 02:35:38;;;;;;;;;;;9.30;1.00;;;;;;5045374;28;19995;-80
2021/12/24 02:38:04;;;;;;;;;;;9.40;1.00;;;;;;5021180;28;19920;-80
2021/12/24 02:40:29;;;;;;;;;;;9.40;1.00;;;;;;5034320;28;19908;-80
2021/12/24 02:42:57;;;;;;;;;;;9.40;1.00;;;;;;5039436;28;19919;-80
2021/12/24 02:45:23;;;;;;;;;;;9.40;1.00;;;;;;5042209;28;19913;-80
2021/12/24 02:48:14;;;;;;;;;;;9.40;1.00;;;;;;5022608;28;19960;-80
2021/12/24 02:56:10;;;;;;;;;;;9.30;1.00;;;;;;5052813;28;19920;-80
2021/12/24 02:58:36;;;;;;;;;;;9.30;1.00;;;;;;5032339;28;19923;-81
2021/12/24 03:01:02;;;;;;;;;;;9.30;1.00;;;;;;5026682;28;19936;-80
2021/12/24 03:03:27;;;;;;;;;;;9.30;1.00;;;;;;5046752;28;19915;-81
2021/12/24 03:05:53;;;;;;;;;;;9.30;1.00;;;;;;5035558;28;19936;-80
2021/12/24 03:08:18;;;;;;;;;;;9.30;1.00;;;;;;5022199;28;20533;-81
2021/12/24 03:10:44;;;;;;;;;;;9.30;1.00;;;;;;5051667;28;19947;-81
2021/12/24 03:13:09;;;;;;;;;;;9.30;1.00;;;;;;5045141;28;19913;-80
2021/12/24 03:15:35;;;;;;;;;;;9.20;1.00;;;;;;5048365;28;19917;-81
2021/12/24 03:18:00;;;;;;;;;;;9.20;1.00;;;;;;5036396;28;19909;-78
2021/12/24 03:20:28;;;;;;;;;;;9.20;1.00;;;;;;5045058;28;19936;-81
2021/12/24 03:25:31;;;;;;;;;;;9.20;1.00;;;;;;5054456;28;19938;-81
2021/12/24 03:27:57;;;;;;;;;;;9.20;1.00;;;;;;5046506;28;19986;-81
2021/12/24 03:30:23;;;;;;;;;;;9.20;1.00;;;;;;5051363;28;20288;-81
2021/12/24 03:32:48;;;;;;;;;;;9.20;1.00;;;;;;5048118;28;19912;-80
2021/12/24 03:35:14;;;;;;;;;;;9.20;1.00;;;;;;5031314;28;19913;-80
2021/12/24 03:37:39;;;;;;;;;;;9.20;1.00;;;;;;5045870;28;20007;-81
2021/12/24 03:40:05;;;;;;;;;;;9.20;1.00;;;;;;5037561;28;19909;-80
2021/12/24 03:42:31;;;;;;;;;;;9.20;1.00;;;;;;5025150;28;19920;-80
2021/12/24 03:45:07;;;;;;;;;;;9.20;1.00;;;;;;5053453;28;19909;-81
2021/12/24 03:47:37;;;;;;;;;;;9.20;1.00;;;;;;5041557;28;19913;-81
2021/12/24 03:50:08;;;;;;;;;;;9.20;1.00;;;;;;5052863;28;19975;-81
2021/12/24 03:54:59;;;;;;;;;;;9.20;1.00;;;;;;5043720;28;19924;-81
2021/12/24 03:57:26;;;;;;;;;;;9.20;1.00;;;;;;5030917;28;20004;-80
2021/12/24 03:59:52;;;;;;;;;;;9.20;1.00;;;;;;5038620;28;19916;-81
2021/12/24 04:02:18;;;;;;;;;;;9.20;1.00;;;;;;5039408;28;19913;-78
2021/12/24 04:04:43;;;;;;;;;;;9.20;1.00;;;;;;5045988;28;19934;-78
2021/12/24 04:07:09;;;;;;;;;;;9.30;1.00;;;;;;5046822;28;19928;-80
2021/12/24 04:09:36;;;;;;;;;;;9.30;1.00;;;;;;5046227;28;19917;-80
2021/12/24 04:12:02;;;;;;;;;;;9.30;1.00;;;;;;5040933;28;19917;-80
2021/12/24 04:14:28;;;;;;;;;;;9.30;1.00;;;;;;5034721;28;19983;-80
2021/12/24 04:16:53;;;;;;;;;;;9.30;1.00;;;;;;5019929;28;20343;-81
2021/12/24 04:27:15;;;;;;;;;;;9.40;1.00;;;;;;5052113;28;19928;-79
2021/12/24 04:29:40;;;;;;;;;;;9.40;1.00;;;;;;5018167;28;19913;-80
2021/12/24 04:32:13;;;;;;;;;;;9.40;1.00;;;;;;5051242;28;19947;-80
2021/12/24 04:34:42;;;;;;;;;;;9.40;1.00;;;;;;5035017;28;20021;-80
2021/12/24 05:01:11;;;;;;;;;;;9.40;1.00;;;;;;5043914;28;19920;-80
2021/12/24 05:04:12;;;;;;;;;;;9.40;1.00;;;;;;5015132;28;19952;-81
2021/12/24 05:06:48;;;;;;;;;;;9.40;1.00;;;;;;5049634;28;19913;-81
2021/12/24 05:09:15;;;;;;;;;;;9.40;1.00;;;;;;5026294;28;19916;-81
2021/12/24 05:11:41;;;;;;;;;;;9.50;1.00;;;;;;5036259;28;20587;-81
2021/12/24 05:14:06;;;;;;;;;;;9.50;1.00;;;;;;5033125;28;19966;-80
2021/12/24 05:16:43;;;;;;;;;;;9.50;1.00;;;;;;5041494;28;19914;-81
2021/12/24 05:21:54;;;;;;;;;;;9.50;1.00;;;;;;5035734;28;19920;-80
2021/12/24 05:24:22;;;;;;;;;;;9.50;1.00;;;;;;5026341;28;19909;-80
2021/12/24 05:26:49;;;;;;;;;;;9.50;1.00;;;;;;5033126;28;20004;-81
2021/12/24 05:29:15;;;;;;;;;;;9.40;1.00;;;;;;5046559;28;20353;-81
2021/12/24 05:31:41;;;;;;;;;;;9.40;1.00;;;;;;5038137;28;19913;-81
2021/12/24 05:34:06;;;;;;;;;;;9.40;1.00;;;;;;5045458;28;19928;-80
2021/12/24 05:36:32;;;;;;;;;;;9.40;1.00;;;;;;5046945;28;20307;-80
2021/12/24 05:38:57;;;;;;;;;;;9.40;1.00;;;;;;5051319;28;19909;-81
2021/12/24 05:41:23;;;;;;;;;;;9.40;1.00;;;;;;5043875;28;19941;-80
2021/12/24 05:43:49;;;;;;;;;;;9.40;1.00;;;;;;5036986;28;19915;-80
2021/12/24 05:46:15;;;;;;;;;;;9.40;1.00;;;;;;5040585;28;19920;-80
2021/12/24 05:48:41;;;;;;;;;;;9.40;1.00;;;;;;5055767;28;19913;-80
2021/12/24 05:51:06;;;;;;;;;;;9.50;1.00;;;;;;5026303;28;19951;-80
2021/12/24 05:53:32;;;;;;;;;;;9.50;1.00;;;;;;5050326;28;20317;-80
2021/12/24 05:55:57;;;;;;;;;;;9.50;1.00;;;;;;5048703;28;19967;-80
2021/12/24 05:58:23;;;;;;;;;;;9.50;1.00;;;;;;5042062;28;19917;-80
2021/12/24 06:00:48;;;;;;;;;;;9.50;1.00;;;;;;5033150;28;19917;-81
2021/12/24 06:03:14;;;;;;;;;;;9.50;1.00;;;;;;5020084;28;19909;-80
2021/12/24 06:05:40;;;;;;;;;;;9.50;1.00;;;;;;5041218;28;19917;-80
2021/12/24 06:08:05;;;;;;;;;;;9.50;1.00;;;;;;5051408;28;19958;-81
2021/12/24 06:10:31;;;;;;;;;;;9.50;1.00;;;;;;5042787;28;20289;-80
2021/12/24 06:12:57;;;;;;;;;;;9.50;1.00;;;;;;5039674;28;19975;-80
2021/12/24 06:15:25;;;;;;;;;;;9.50;1.00;;;;;;5039328;28;20016;-80
2021/12/24 06:17:53;;;;;;;;;;;9.50;1.00;;;;;;5019265;28;20447;-80
2021/12/24 06:20:20;;;;;;;;;;;9.50;1.00;;;;;;5048236;28;19920;-81
2021/12/24 06:22:45;;;;;;;;;;;9.40;1.00;;;;;;5057235;28;19952;-80
2021/12/24 06:25:11;;;;;;;;;;;9.40;1.00;;;;;;5048239;28;19974;-80
2021/12/24 06:27:37;;;;;;;;;;;9.40;1.00;;;;;;5037341;28;20338;-81
2021/12/24 06:30:04;;;;;;;;;;;9.40;1.00;;;;;;5030085;28;19923;-81
2021/12/24 06:32:30;;;;;;;;;;;9.40;1.00;;;;;;5056726;28;19909;-80
2021/12/24 06:34:55;;;;;;;;;;;9.40;1.00;;;;;;5028087;28;20387;-80
2021/12/24 06:37:21;;;;;;;;;;;9.40;1.00;;;;;;5052681;28;19948;-80
2021/12/24 06:39:46;;;;;;;;;;;9.40;1.00;;;;;;5048445;28;19913;-80
2021/12/24 06:42:12;;;;;;;;;;;9.40;1.00;;;;;;5037277;28;19910;-80
2021/12/24 06:44:38;;;;;;;;;;;9.30;1.00;;;;;;5037993;28;19948;-80
2021/12/24 06:47:03;;;;;;;;;;;9.30;1.00;;;;;;5041305;28;19917;-80
2021/12/24 06:49:29;;;;;;;;;;;9.30;1.00;;;;;;5029623;28;19917;-80
2021/12/24 06:51:55;;;;;;;;;;;9.30;1.00;;;;;;5027279;28;19921;-80
2021/12/24 06:54:20;;;;;;;;;;;9.30;1.00;;;;;;5043874;28;19917;-79
2021/12/24 06:56:46;;;;;;;;;;;9.30;1.00;;;;;;5047544;28;19919;-80
2021/12/24 06:59:11;;;;;;;;;;;9.30;1.00;;;;;;5029953;28;20403;-80
2021/12/24 07:01:37;;;;;;;;;;;9.30;1.00;;;;;;5032173;28;19931;-80
2021/12/24 07:04:02;;;;;;;;;;;9.30;1.00;;;;;;5044249;28;20369;-80
2021/12/24 07:06:28;;;;;;;;;;;9.30;1.00;;;;;;5043924;28;19948;-80
2021/12/24 07:08:54;;;;;;;;;;;9.20;1.00;;;;;;5037092;28;19947;-80
2021/12/24 07:11:20;;;;;;;;;;;9.30;1.00;;;;;;5049956;28;20437;-80
2021/12/24 07:13:45;;;;;;;;;;;9.40;1.00;;;;;;5031316;28;19923;-80
2021/12/24 07:16:11;;;;;;;;;;;9.40;1.00;;;;;;5049435;28;19995;-80
2021/12/24 07:18:38;;;;;;;;;;;9.40;1.00;;;;;;5043459;28;19913;-81
2021/12/24 07:21:03;;;;;;;;;;;9.40;1.00;;;;;;5034048;28;19917;-80
2021/12/24 07:23:29;;;;;;;;;;;9.40;1.00;;;;;;5048180;28;20012;-80
2021/12/24 07:25:54;;;;;;;;;;;9.40;1.00;;;;;;5051719;28;19919;-80
2021/12/24 07:28:20;;;;;;;;;;;9.40;1.00;;;;;;5037369;28;19999;-80
2021/12/24 07:30:45;;;;;;;;;;;9.40;1.00;;;;;;5050878;28;19913;-80
2021/12/24 07:33:14;;;;;;;;;;;9.40;1.00;;;;;;5050278;28;19919;-79
2021/12/24 07:35:43;;;;;;;;;;;9.40;1.00;;;;;;5035640;28;20001;-80
2021/12/24 07:38:09;;;;;;;;;;;9.40;1.00;;;;;;5044961;28;19921;-81
2021/12/24 07:40:35;;;;;;;;;;;9.40;1.00;;;;;;5041825;28;19920;-81
2021/12/24 07:43:01;;;;;;;;;;;9.40;1.00;;;;;;5051885;28;19923;-80
2021/12/24 07:45:27;;;;;;;;;;;9.40;1.00;;;;;;5037696;28;19921;-80
2021/12/24 07:48:07;;;;;;;;;;;9.40;1.00;;;;;;5051970;28;19979;-80
2021/12/24 07:52:59;;;;;;;;;;;9.40;1.00;;;;;;5051644;28;20323;-81
2021/12/24 07:55:24;;;;;;;;;;;9.40;1.00;;;;;;5046712;28;19916;-81
2021/12/24 07:57:51;;;;;;;;;;;9.40;1.00;;;;;;5034690;28;19913;-81
2021/12/24 08:00:17;;;;;;;;;;;9.40;1.00;;;;;;5036119;28;20549;-82
2021/12/24 08:02:43;;;;;;;;;;;9.40;1.00;;;;;;5044829;28;20074;-81
2021/12/24 08:05:09;;;;;;;;;;;9.40;1.00;;;;;;5045986;28;19952;-81
2021/12/24 08:07:35;;;;;;;;;;;9.40;1.00;;;;;;5052286;28;20327;-81
2021/12/24 08:10:00;;;;;;;;;;;9.50;1.00;;;;;;5043197;28;19951;-81
2021/12/24 08:12:26;;;;;;;;;;;9.50;1.00;;;;;;5043676;28;19932;-81
2021/12/24 08:14:51;;;;;;;;;;;9.50;1.00;;;;;;5054151;28;19939;-80
2021/12/24 08:17:17;;;;;;;;;;;9.50;1.00;;;;;;5050937;28;19924;-81
2021/12/24 08:19:42;;;;;;;;;;;9.50;1.00;;;;;;5034595;28;19978;-81
2021/12/24 08:22:10;;;;;;;;;;;9.50;1.00;;;;;;5022339;28;19909;-81
2021/12/24 08:24:35;;;;;;;;;;;9.50;1.00;;;;;;5056209;28;19913;-81
2021/12/24 08:27:01;;;;;;;;;;;9.50;1.00;;;;;;5039081;28;19916;-82
2021/12/24 08:29:26;;;;;;;;;;;9.50;1.00;;;;;;5053160;28;19913;-81
2021/12/24 08:31:52;;;;;;;;;;;9.50;1.00;;;;;;5056747;28;19912;-81
2021/12/24 08:34:19;;;;;;;;;;;9.50;1.00;;;;;;5053340;28;19912;-82
2021/12/24 08:36:45;;;;;;;;;;;9.50;1.00;;;;;;5050919;28;19936;-82
2021/12/24 08:39:11;;;;;;;;;;;9.60;1.00;;;;;;5052563;28;19920;-81
2021/12/24 08:41:36;;;;;;;;;;;9.60;1.00;;;;;;5052112;28;19920;-82
2021/12/24 08:44:02;;;;;;;;;;;9.60;1.00;;;;;;5039982;28;19920;-80
2021/12/24 08:46:28;;;;;;;;;;;9.60;1.00;;;;;;5046430;28;19914;-81
2021/12/24 08:48:53;;;;;;;;;;;9.70;1.00;;;;;;5044800;28;19920;-81
2021/12/24 08:51:19;;;;;;;;;;;9.70;1.00;;;;;;5040920;28;19966;-81
2021/12/24 08:53:44;;;;;;;;;;;9.70;1.00;;;;;;5057945;28;19909;-80
2021/12/24 08:56:10;;;;;;;;;;;9.70;1.00;;;;;;5039748;28;19917;-81
2021/12/24 08:58:37;;;;;;;;;;;9.70;1.00;;;;;;5049013;28;19913;-82
2021/12/24 09:01:03;;;;;;;;;;;9.70;1.00;;;;;;5050999;28;19913;-81
2021/12/24 09:03:28;;;;;;;;;;;9.70;1.00;;;;;;5047501;28;19963;-81
2021/12/24 09:05:54;;;;;;;;;;;9.70;1.00;;;;;;5037389;28;19913;-80
2021/12/24 09:08:19;;;;;;;;;;;9.70;1.00;;;;;;5038830;28;20493;-81
2021/12/24 09:10:45;;;;;;;;;;;9.70;1.00;;;;;;5045792;28;19916;-81
2021/12/24 09:13:10;;;;;;;;;;;9.70;1.00;;;;;;5055109;28;19924;-81
2021/12/24 09:15:37;;;;;;;;;;;9.70;1.00;;;;;;5050893;28;19913;-82
2021/12/24 09:18:03;;;;;;;;;;;9.70;1.00;;;;;;5050200;28;19913;-81
2021/12/24 09:20:35;;;;;;;;;;;9.70;1.00;;;;;;5048270;28;19920;-81
2021/12/24 09:23:02;;;;;;;;;;;9.70;1.00;;;;;;5040826;28;19955;-81
2021/12/24 09:25:28;;;;;;;;;;;9.70;1.00;;;;;;5046859;28;19913;-81
2021/12/24 09:27:54;;;;;;;;;;;9.70;1.00;;;;;;5050774;28;19978;-81
2021/12/24 09:30:20;;;;;;;;;;;9.70;1.00;;;;;;5044029;28;19917;-81
2021/12/24 09:32:45;;;;;;;;;;;9.70;1.00;;;;;;5030891;28;19913;-81
2021/12/24 09:35:11;;;;;;;;;;;9.70;1.00;;;;;;5035824;28;19944;-81
2021/12/24 09:37:38;;;;;;;;;;;9.70;1.00;;;;;;5028972;28;20447;-81
2021/12/24 09:40:04;;;;;;;;;;;9.80;1.00;;;;;;5060558;28;20094;-81
2021/12/24 09:42:31;;;;;;;;;;;9.80;1.00;;;;;;5054761;28;20332;-81
2021/12/24 09:44:57;;;;;;;;;;;9.80;1.00;;;;;;5060742;28;19920;-81
2021/12/24 09:47:23;;;;;;;;;;;9.90;1.00;;;;;;5055188;28;19916;-81
2021/12/24 09:49:49;;;;;;;;;;;10.00;1.00;;;;;;5061162;28;19955;-81
2021/12/24 09:52:14;;;;;;;;;;;10.00;1.00;;;;;;5064996;28;20000;-81
2021/12/24 09:54:42;;;;;;;;;;;10.10;1.00;;;;;;5060768;28;19944;-81
2021/12/24 09:57:08;;;;;;;;;;;10.10;1.00;;;;;;5055637;28;19913;-81
2021/12/24 09:59:33;;;;;;;;;;;10.10;1.00;;;;;;5053159;28;19925;-80
2021/12/24 10:02:00;;;;;;;;;;;10.10;1.00;;;;;;5060055;28;19909;-81
2021/12/24 10:04:27;;;;;;;;;;;10.10;1.00;;;;;;5037756;28;19948;-82
2021/12/24 10:06:55;;;;;;;;;;;10.10;1.00;;;;;;5046858;28;19939;-81
2021/12/24 10:09:21;;;;;;;;;;;10.10;1.00;;;;;;5039092;28;19943;-82
2021/12/24 10:11:50;;;;;;;;;;;10.10;1.00;;;;;;5054508;28;19913;-81
2021/12/24 10:14:16;;;;;;;;;;;10.20;1.00;;;;;;5046795;28;19967;-81
2021/12/24 10:16:46;;;;;;;;;;;10.20;99.90;;;;;;5050591;28;19912;-81
2021/12/24 10:19:13;;;;;;;;;;;10.20;99.90;;;;;;5055042;28;20011;-81
2021/12/24 10:21:39;;;;;;;;;;;10.20;99.90;;;;;;5047626;28;19917;-81
2021/12/24 10:24:11;;;;;;;;;;;10.30;99.90;;;;;;5056050;28;20274;-82
2021/12/24 10:26:38;;;;;;;;;;;10.30;99.90;;;;;;5052968;28;19940;-82
2021/12/24 10:29:08;;;;;;;;;;;10.30;99.90;;;;;;5052595;28;19984;-81
2021/12/24 10:31:36;;;;;;;;;;;10.30;99.90;;;;;;5038676;28;19963;-81
2021/12/24 10:34:10;;;;;;;;;;;10.40;99.90;;;;;;5040566;28;20383;-82
2021/12/24 10:36:56;;;;;;;;;;;10.60;99.90;;;;;;5059558;28;19927;-81
2021/12/24 10:39:23;;;;;;;;;;;10.80;99.90;;;;;;5025635;28;19917;-80
2021/12/24 10:41:50;;;;;;;;;;;10.70;99.90;;;;;;5034461;28;19952;-81
2021/12/24 10:44:16;;;;;;;;;;;10.60;99.90;;;;;;5047524;28;19909;-81
2021/12/24 10:46:56;;;;;;;;;;;10.50;99.90;;;;;;5049045;28;19983;-82
2021/12/24 10:49:35;;;;;;;;;;;10.30;99.90;;;;;;5038071;28;19921;-82
2021/12/24 10:54:51;;;;;;;;;;;10.20;99.90;;;;;;5041864;28;19920;-82
2021/12/24 10:57:17;;;;;;;;;;;10.20;99.90;;;;;;5050211;28;19944;-82
2021/12/24 10:59:44;;;;;;;;;;;10.10;99.90;;;;;;5023311;28;20063;-81
2021/12/24 11:02:10;;;;;;;;;;;10.10;99.90;;;;;;5030163;28;20395;-82
2021/12/24 11:04:36;;;;;;;;;;;10.10;99.90;;;;;;5037935;28;19919;-82
2021/12/24 11:07:01;;;;;;;;;;;10.10;99.90;;;;;;5045268;28;19913;-82
2021/12/24 11:09:27;;;;;;;;;;;10.10;99.90;;;;;;5049150;28;19924;-82
2021/12/24 11:11:55;;;;;;;;;;;10.20;99.90;;;;;;5050958;28;19936;-82
2021/12/24 11:14:21;;;;;;;;;;;10.30;99.90;;;;;;5050509;28;19917;-81
2021/12/24 11:16:47;;;;;;;;;;;10.50;99.90;;;;;;5024094;28;20373;-81
2021/12/24 11:19:12;;;;;;;;;;;10.70;99.90;;;;;;5022003;28;19975;-79
2021/12/24 11:21:38;;;;;;;;;;;10.80;99.90;;;;;;5050789;28;19968;-82
2021/12/24 11:24:03;;;;;;;;;;;11.00;98.30;;;;;;5027990;28;19913;-82
2021/12/24 11:26:30;;;;;;;;;;;11.10;1.00;;;;;;5040158;28;20015;-82
2021/12/24 11:28:56;;;;;;;;;;;11.10;1.00;;;;;;5056114;28;19951;-82
2021/12/24 11:31:30;;;;;;;;;;;11.20;1.00;;;;;;5047773;28;19913;-81
2021/12/24 11:33:58;;;;;;;;;;;11.40;1.00;;;;;;5050522;28;19913;-79
2021/12/24 11:36:24;;;;;;;;;;;11.60;99.90;;;;;;5046577;28;19943;-80
2021/12/24 11:38:54;;;;;;;;;;;11.70;99.90;;;;;;5043162;28;19920;-79
2021/12/24 11:41:22;;;;;;;;;;;11.70;99.90;;;;;;5027443;28;19919;-79
2021/12/24 11:43:49;;;;;;;;;;;11.60;44.70;;;;;;5028023;28;21694;-80
2021/12/24 11:46:16;;;;;;;;;;;11.50;73.50;;;;;;5052494;28;19917;-80
2021/12/24 11:48:41;;;;;;;;;;;11.40;99.90;;;;;;5044496;28;19984;-79
2021/12/24 11:51:09;;;;;;;;;;;11.20;99.90;;;;;;5025115;28;19955;-80
2021/12/24 11:53:35;;;;;;;;;;;11.10;99.90;;;;;;5044437;28;19958;-80
2021/12/24 11:56:03;;;;;;;;;;;11.10;99.90;;;;;;5046399;28;20396;-79
2021/12/24 11:58:28;;;;;;;;;;;11.10;99.90;;;;;;5036422;28;20291;-79
2021/12/24 12:00:55;;;;;;;;;;;11.10;99.90;;;;;;5038604;28;19999;-79
2021/12/24 12:03:35;;;;;;;;;;;11.10;99.90;;;;;;5048985;28;19917;-79
2021/12/24 12:06:01;;;;;;;;;;;11.00;99.90;;;;;;5026333;28;20134;-80
2021/12/24 12:08:27;;;;;;;;;;;11.00;99.90;;;;;;5047888;28;19978;-79
2021/12/24 12:10:54;;;;;;;;;;;11.00;99.90;;;;;;5036185;28;19916;-79
2021/12/24 12:13:38;;;;;;;;;;;11.00;99.90;;;;;;5035558;28;19913;-80
2021/12/24 12:16:05;;;;;;;;;;;10.90;99.90;;;;;;5043486;28;19920;-79
2021/12/24 12:18:33;;;;;;;;;;;10.90;99.90;;;;;;5027406;28;19909;-79
2021/12/24 12:21:12;;;;;;;;;;;11.00;99.90;;;;;;5037935;28;19913;-79
2021/12/24 12:23:51;;;;;;;;;;;11.00;99.90;;;;;;5020725;28;19913;-79
2021/12/24 12:26:32;;;;;;;;;;;11.10;99.90;;;;;;5050276;28;19912;-78
2021/12/24 12:29:27;;;;;;;;;;;11.10;99.90;;;;;;5048183;28;19924;-79
2021/12/24 12:31:55;;;;;;;;;;;11.00;99.90;;;;;;5012712;28;19970;-80
2021/12/24 12:34:35;;;;;;;;;;;10.90;99.90;;;;;;5022235;28;20017;-79
2021/12/24 12:37:13;;;;;;;;;;;10.90;99.90;;;;;;5027341;28;19913;-79
2021/12/24 12:39:38;;;;;;;;;;;10.90;99.90;;;;;;5022342;28;20027;-79
2021/12/24 12:42:04;;;;;;;;;;;10.80;99.90;;;;;;5031516;28;19973;-78
2021/12/24 12:44:32;;;;;;;;;;;10.80;99.90;;;;;;5029319;28;19956;-78
2021/12/24 12:47:08;;;;;;;;;;;10.80;1.00;;;;;;5020043;28;19968;-78
2021/12/24 12:49:35;;;;;;;;;;;10.80;1.00;;;;;;5047219;28;20003;-78
2021/12/24 12:52:22;;;;;;;;;;;10.80;1.00;;;;;;5025851;28;19917;-78
2021/12/24 12:54:49;;;;;;;;;;;10.80;1.00;;;;;;5032590;28;19919;-78
2021/12/24 12:57:15;;;;;;;;;;;10.80;1.00;;;;;;5034458;28;19909;-78
2021/12/24 12:59:41;;;;;;;;;;;10.80;1.00;;;;;;5055198;28;19935;-78
2021/12/24 13:02:06;;;;;;;;;;;10.90;1.00;;;;;;5054377;28;19940;-78
2021/12/24 13:04:32;;;;;;;;;;;10.80;1.00;;;;;;5034685;28;19917;-79
2021/12/24 13:06:58;;;;;;;;;;;10.80;1.00;;;;;;5035222;28;19960;-78
2021/12/24 13:09:32;;;;;;;;;;;10.80;1.00;;;;;;5045208;28;19924;-78
2021/12/24 13:11:58;;;;;;;;;;;10.80;1.00;;;;;;5049494;28;19909;-79
2021/12/24 13:14:25;;;;;;;;;;;10.70;1.00;;;;;;5022900;28;19910;-78
2021/12/24 13:16:54;;;;;;;;;;;10.70;1.00;;;;;;5022640;28;19917;-79
2021/12/24 13:19:55;;;;;;;;;;;10.70;1.00;;;;;;5052040;28;20258;-78
2021/12/24 13:22:36;;;;;;;;;;;10.60;1.00;;;;;;5054294;28;19963;-79
2021/12/24 13:25:06;;;;;;;;;;;10.60;1.00;;;;;;5034454;28;19908;-78
2021/12/24 13:27:39;;;;;;;;;;;10.60;1.00;;;;;;5047276;28;19956;-79
2021/12/24 13:30:21;;;;;;;;;;;10.60;1.00;;;;;;5032467;28;20385;-79
2021/12/24 13:32:48;;;;;;;;;;;10.50;4.90;;;;;;5027795;28;19912;-78
2021/12/24 13:35:15;;;;;;;;;;;10.40;47.40;;;;;;5027784;28;19944;-79
2021/12/24 13:37:45;;;;;;;;;;;10.40;96.20;;;;;;5048391;28;20384;-79
2021/12/24 13:40:11;;;;;;;;;;;10.40;99.90;;;;;;5033729;28;19931;-78
2021/12/24 13:42:51;;;;;;;;;;;10.30;99.90;;;;;;5049766;28;19908;-79
2021/12/24 13:45:17;;;;;;;;;;;10.30;99.90;;;;;;5028856;28;19921;-80
2021/12/24 13:47:55;;;;;;;;;;;10.40;99.90;;;;;;5055213;28;19966;-79
2021/12/24 13:55:40;;;;;;;;;;;10.30;99.90;;;;;;5050400;28;20327;-79
2021/12/24 13:58:08;;;;;;;;;;;10.30;99.90;;;;;;5053616;28;19940;-79
2021/12/24 14:00:34;;;;;;;;;;;10.30;99.90;;;;;;5035007;28;19924;-79
2021/12/24 14:03:01;;;;;;;;;;;10.30;99.90;;;;;;5045586;28;20319;-79
2021/12/24 14:05:27;;;;;;;;;;;10.30;99.90;;;;;;5032608;28;19916;-79
2021/12/24 14:08:02;;;;;;;;;;;10.30;99.90;;;;;;5033425;28;19917;-78
2021/12/24 14:10:28;;;;;;;;;;;10.20;99.90;;;;;;5039378;28;19955;-78
2021/12/24 14:12:55;;;;;;;;;;;10.20;99.90;;;;;;5041103;28;19909;-79
2021/12/24 14:15:25;;;;;;;;;;;10.20;99.90;;;;;;5051159;28;20009;-79
2021/12/24 14:20:27;;;;;;;;;;;10.30;99.90;;;;;;5047300;28;20333;-79
2021/12/24 14:22:52;;;;;;;;;;;10.20;99.90;;;;;;5045188;28;19913;-78
2021/12/24 14:25:18;;;;;;;;;;;10.20;99.90;;;;;;5049356;28;19920;-81
2021/12/24 14:27:48;;;;;;;;;;;10.20;99.90;;;;;;5044480;28;19980;-79
2021/12/24 14:30:15;;;;;;;;;;;10.20;99.90;;;;;;5051919;28;19921;-78
2021/12/24 14:32:42;;;;;;;;;;;10.20;99.90;;;;;;5037778;28;20008;-78
2021/12/24 14:35:17;;;;;;;;;;;10.20;99.90;;;;;;5032579;28;19913;-78
2021/12/24 14:37:44;;;;;;;;;;;10.20;99.90;;;;;;5047237;28;19917;-78
2021/12/24 14:40:11;;;;;;;;;;;10.20;99.90;;;;;;5041917;28;20058;-79
2021/12/24 14:42:36;;;;;;;;;;;10.20;99.90;;;;;;5026528;28;19917;-79
2021/12/24 14:45:11;;;;;;;;;;;10.20;99.90;;;;;;5032841;28;19920;-79
2021/12/24 14:47:38;;;;;;;;;;;10.10;99.90;;;;;;5042186;28;19913;-79
2021/12/24 14:50:05;;;;;;;;;;;10.10;99.90;;;;;;5052016;28;20467;-79
2021/12/24 14:52:31;;;;;;;;;;;10.10;99.90;;;;;;5033554;28;20316;-78
2021/12/24 14:55:05;;;;;;;;;;;10.10;99.90;;;;;;5050829;28;19913;-79
2021/12/24 14:57:35;;;;;;;;;;;10.10;99.90;;;;;;5044616;28;19944;-79
2021/12/24 15:00:05;;;;;;;;;;;10.10;99.90;;;;;;5027316;28;20393;-78
2021/12/24 15:02:30;;;;;;;;;;;10.10;99.90;;;;;;5043939;28;19948;-78
2021/12/24 15:04:56;;;;;;;;;;;10.00;99.90;;;;;;5028740;28;19948;-79
2021/12/24 15:07:29;;;;;;;;;;;10.00;99.90;;;;;;5040392;28;19974;-79
2021/12/24 15:10:08;;;;;;;;;;;10.00;99.90;;;;;;5028515;28;19931;-79
2021/12/24 15:12:39;;;;;;;;;;;10.00;99.90;;;;;;5036031;28;19920;-78
2021/12/24 15:15:06;;;;;;;;;;;9.90;99.90;;;;;;5040749;28;19913;-79
2021/12/24 15:17:41;;;;;;;;;;;9.90;99.90;;;;;;5042956;28;19909;-78
2021/12/24 15:20:07;;;;;;;;;;;9.90;99.90;;;;;;5034420;28;19913;-79
2021/12/24 15:22:33;;;;;;;;;;;9.90;99.90;;;;;;5024727;28;20320;-79
2021/12/24 15:24:58;;;;;;;;;;;9.80;1.00;;;;;;5052833;28;19919;-79
2021/12/24 15:27:31;;;;;;;;;;;9.80;1.00;;;;;;5037529;28;19923;-79
2021/12/24 15:29:57;;;;;;;;;;;9.80;1.00;;;;;;5034765;28;20074;-78
2021/12/24 15:32:22;;;;;;;;;;;9.70;1.00;;;;;;5051911;28;19960;-79
2021/12/24 15:34:48;;;;;;;;;;;9.70;1.00;;;;;;5051602;28;19966;-79
2021/12/24 15:37:13;;;;;;;;;;;9.70;1.00;;;;;;5045137;28;19913;-79
2021/12/24 15:39:38;;;;;;;;;;;9.60;1.00;;;;;;5035616;28;19913;-79
2021/12/24 15:42:04;;;;;;;;;;;9.60;1.00;;;;;;5033096;28;19913;-79
2021/12/24 15:44:30;;;;;;;;;;;9.60;1.00;;;;;;5044042;28;19936;-79
2021/12/24 15:46:55;;;;;;;;;;;9.50;1.00;;;;;;5046338;28;19976;-79
2021/12/24 15:49:21;;;;;;;;;;;9.50;1.00;;;;;;5057079;28;19916;-81
2021/12/24 15:51:46;;;;;;;;;;;9.40;1.00;;;;;;5040439;28;19921;-81
2021/12/24 15:54:12;;;;;;;;;;;9.40;1.00;;;;;;5051790;28;19928;-82
2021/12/24 15:56:37;;;;;;;;;;;9.40;1.00;;;;;;5041803;28;19920;-79
2021/12/24 15:59:03;;;;;;;;;;;9.30;1.00;;;;;;5048117;28;19913;-80
2021/12/24 16:01:28;;;;;;;;;;;9.20;1.00;;;;;;5063399;22;20393;-87
2021/12/24 16:03:54;;;;;;;;;;;9.20;1.00;;;;;;5032454;28;19913;-86
2021/12/24 16:06:20;;;;;;;;;;;9.10;1.00;;;;;;5024403;28;20132;-86
2021/12/24 16:08:46;;;;;;;;;;;9.10;1.00;;;;;;5033369;28;19921;-86
2021/12/24 16:11:12;;;;;;;;;;;9.00;1.00;;;;;;5031166;28;19944;-86
2021/12/24 16:13:37;;;;;;;;;;;8.90;1.00;;;;;;5026294;28;19932;-86
2021/12/24 16:16:05;;;;;;;;;;;8.90;1.00;;;;;;5032364;28;20377;-86
2021/12/24 16:18:31;;;;;;;;;;;8.80;1.00;;;;;;5033127;28;19909;-86
2021/12/24 16:20:56;;;;;;;;;;;8.80;1.00;;;;;;5029195;28;19917;-84
2021/12/24 16:23:22;;;;;;;;;;;8.80;1.00;;;;;;5032743;28;20427;-85